Hillsdale, Wyoming
Current Conditions -  °F | °C
As of 5:53 AM on Monday 22 Dec 2014 (Local Time) from KCYS Reporting Station
Clear Clear  
Wind Chill: 16°   Ceiling: Unl
Heat Index: 26°   Visibility: 10mi
Dew Point: 17°   Wind: 12mph
Humidity: 69%   Direction: 310°NW
Pressure: 29.7"   Gusts: NA
Location:  41.21°N, 104.48°W
Report Text: KCYS 221253Z 31010KT 10SM CLR M03/M08 A2970 RMK AO2 SLP072 T10331083
Loading
Personal Weather Stations






























Interactive Weather Map New forecast layout! Learn more

10-Day Weather Forecast

Advertisements
Track Severe Weather on mobile